Mesquite, Nevada Weather observations

Data are for observation ending at time listed.
 Day   Time    Ave.   Ave.  Ave.  Vector   Max.   Stn.    Total    Solar   Ave.  
  of    of     Air    Rel.  Wind   Wind    Wind   Baro.  Precip.   Rad.    Soil  
Year   Day     Temp.  Hum.  Speed  Dir.    Gust   Pres.                    Temp. 
2016   (PST)    F      %     mph   deg.    mph     mb.     in.     W/m2     F   
------------------------------------------------------------------------------
 177   14:40  108.1     7    2.5   232      5.4   945.8    0.00     579    107.3
 177   14:50  109.1     7    4.3   219      9.8   945.6    0.00     561    107.5
 177   15:00  109.4     6    3.4   217      8.1   945.6    0.00     540    107.7
 177   15:10  108.8     6    4.2   240      8.9   945.5    0.00     517    107.9
 177   15:20  108.4     6    3.0   276      8.3   945.4    0.00     498    108.1
 177   15:30  108.5     6    3.4   215      8.5   945.3    0.00     475    108.3
 177   15:40  108.1     6    5.1   259     15.3   945.1    0.00     454    108.4
 177   15:50  107.6     6    6.1   271     12.1   945.0    0.00     433    108.6
 177   16:00  107.6     6    3.5   296      9.3   944.9    0.00     405    108.7
 177   16:10  108.1     6    4.2   267     12.3   944.8    0.00     382    108.8
 177   16:20  108.1     6    4.0   276     10.1   944.7    0.00     360    108.8
 177   16:30  107.6     6    5.7   250     11.6   944.6    0.00     337    108.9
 177   16:40  107.8     6    3.4   224      8.9   944.5    0.00     310    108.9
 177   16:50  108.3     6    2.6   236      6.7   944.4    0.00     285    108.9
 177   17:00  108.6     6    5.4   249     12.9   944.4    0.00     260    108.9
 177   17:10  107.2     6    7.1   245     11.7   944.4    0.00     233    108.8
 177   17:20  107.3     6    5.4   264     10.2   944.4    0.00     205    108.8
 177   17:30  108.1     6    4.2   236      8.3   944.4    0.00     180    108.7
 177   17:40  107.6     6    3.3   258      6.3   944.4    0.00     156    108.6
 177   17:50  107.7     6    3.3   240      5.9   944.4    0.00     131    108.5
 177   18:00  107.3     6    2.3   234      4.4   944.4    0.00     107    108.4
 177   18:10  107.9     6    1.8   216      4.6   944.4    0.00      85    108.2
 177   18:20  107.1     6    2.2   210      4.5   944.4    0.00      61    108.0
 177   18:30  106.3     6    2.4   224      4.4   944.4    0.00      41    107.9
 177   18:40  105.1     6    3.0   232      6.3   944.4    0.00      24    107.7
 177   18:50  103.7     7    3.3   235      6.9   944.4    0.00      12    107.5
 177   19:00  102.3     7    2.4   233      4.5   944.5    0.00       6    107.3
 177   19:10  101.3     7    2.1   245      3.3   944.5    0.00       3    107.0
 177   19:20  100.8     8    2.6   243      4.2   944.5    0.00       3    106.8
 177   19:30  100.3     7    2.8   241      3.8   944.6    0.00       2    106.6
 177   19:40   99.6     8    2.0   224      3.2   944.6    0.00       0    106.3
 177   19:50   99.1     8    2.3   175      3.1   944.7    0.00       0    106.1
 177   20:00   97.9     9    3.3   106      5.2   944.8    0.00       1    105.8
 177   20:10   93.4     9    3.6    62      4.7   944.9    0.00       1    105.5
 177   20:20   91.4    10    3.4    54      3.9   945.0    0.00       1    105.3
 177   20:30   90.5    10    3.9    42      5.1   945.1    0.00       1    105.1
 177   20:40   89.9     9    4.4    55      5.3   945.2    0.00       1    104.8
 177   20:50   89.7     9    3.6    76      4.4   945.3    0.00       1    104.6
 177   21:00   89.9     8    4.8   113      6.4   945.4    0.00       1    104.4
 177   21:10   90.6     8    3.2    79      5.0   945.5    0.00       1    104.1
 177   21:20   89.7     9    2.6    78      3.8   945.6    0.00       1    103.9
 177   21:30   90.2     8    3.6   109      5.2   945.7    0.00       1    103.6
 177   21:40   89.5     8    4.1    50      8.0   945.8    0.00       1    103.4
 177   21:50   90.2     8    6.2    16     11.8   946.0    0.00       1    103.2
 177   22:00   92.1     8    2.5   342      7.2   946.1    0.00       1    103.0
 177   22:10   92.2     9    0.9   291      4.4   946.2    0.00       1    102.8
 177   22:20   90.9    10    3.6   292      7.2   946.2    0.00       1    102.6
 177   22:30   89.1    10    5.2   130      8.6   946.2    0.00       1    102.4
 177   22:40   87.6    10    4.9   112      7.2   946.3    0.00       1    102.1
 177   22:50   87.5    10    3.4   128      4.8   946.4    0.00       1    102.0
 177   23:00   88.7     9    4.4   149      6.9   946.6    0.00       1    101.8
 177   23:10   87.3    10    3.7   149      5.2   946.8    0.00       1    101.6
 177   23:20   86.2    11    1.3   128      2.6   946.8    0.00       1    101.4
 177   23:30   85.6    11    2.7   290      3.5   946.8    0.00       1    101.3
 177   23:40   85.1    12    2.1   257      3.1   946.8    0.00       1    101.1
 177   23:50   85.7    12    2.0   262      3.1   946.9    0.00       1    100.9
 178    0:00   87.5    11    2.9   311      4.7   947.0    0.00       1    100.7
 178    0:10   86.8    11    1.8    16      3.5   947.1    0.00       0    100.5
 178    0:20   83.7    12    2.1    89      3.8   947.2    0.00       1    100.3
 178    0:30   82.5    12    1.7    76      3.5   947.3    0.00       1    100.2
 178    0:40   83.9    12    3.7    16      6.0   947.2    0.00       1    100.0
 178    0:50   86.3    11    5.6     7      7.0   947.2    0.00       1    99.9
 178    1:00   84.2    12    5.2    64      6.9   947.3    0.00       1    99.7
 178    1:10   80.1    13    3.6    50      4.9   947.3    0.00       1    99.5
 178    1:20   80.3    12    4.9    32      6.4   947.3    0.00       1    99.4
 178    1:30   81.5    12    4.9    21      7.0   947.4    0.00       0    99.2
 178    1:40   84.6    12    5.4     5      6.6   947.4    0.00       0    99.0
 178    1:50   86.3    12    5.5   344      7.9   947.3    0.00       0    98.9
 178    2:00   86.5    12    3.8   331      7.2   947.4    0.00       0    98.7
 178    2:10   81.4    13    3.7    64      5.0   947.5    0.00       0    98.6
 178    2:20   78.9    14    2.8    56      4.6   947.5    0.00       0    98.4
 178    2:30   79.5    13    2.4   109      3.4   947.6    0.00       1    98.3
 178    2:40   79.5    13    1.8   103      3.4   947.7    0.00       1    98.1
 178    2:50   79.2    14    1.0    46      2.4   947.8    0.00       1    98.0
 178    3:00   78.7    14    0.5   103      1.7   947.9    0.00       0    97.9
 178    3:10   78.7    14    0.8   234      1.8   948.0    0.00       1    97.7
 178    3:20   77.2    15    2.9   117      5.0   948.2    0.00       1    97.6
 178    3:30   75.1    16    2.9    78      4.4   948.3    0.00       1    97.4
 178    3:40   75.3    16    2.7    63      4.0   948.4    0.00       0    97.3
 178    3:50   76.0    15    3.3    41      4.1   948.5    0.00       1    97.2
 178    4:00   77.0    14    2.7    53      4.1   948.6    0.00       0    97.0
 178    4:10   77.7    14    3.9    76      5.2   948.7    0.00       2    96.9
 178    4:20   76.8    14    3.7    48      4.5   948.8    0.00       3    96.7
 178    4:30   77.3    14    2.8    59      4.3   948.9    0.00       3    96.6
 178    4:40   76.8    14    3.9    73      4.8   949.0    0.00       9    96.5
 178    4:50   76.7    15    2.4    67      3.9   949.1    0.00      18    96.3
 178    5:00   78.8    14    2.9   108      4.2   949.3    0.00      33    96.1
 178    5:10   79.7    14    2.8    97      3.7   949.4    0.00      54    96.0
 178    5:20   80.0    14    2.3    69      3.7   949.4    0.00      78    95.9
 178    5:30   81.4    13    1.9    62      2.8   949.3    0.00     100    95.7
 178    5:40   82.9    13    2.1    98      3.3   949.4    0.00     122    95.6
 178    5:50   81.7    14    3.3   128      5.8   949.7    0.00     147    95.5
 178    6:00   81.9    13    1.3    92      2.4   949.8    0.00     172    95.3
 178    6:10   83.3    12    2.2   107      3.6   949.9    0.00     197    95.2
 178    6:20   84.3    12    2.2    68      3.5   950.1    0.00     222    95.2
 178    6:30   85.8    13    2.0   351      3.7   950.1    0.00     249    95.1
 178    6:40   88.3    13    0.4   185      1.6   950.1    0.00     276    94.9
 178    6:50   89.0    13    0.6   195      3.3   950.1    0.00     301    94.8
 178    7:00   87.3    15    3.4   170      5.6   950.2    0.00     328    94.8
 178    7:10   87.1    14    3.8   160      6.4   950.3    0.00     354    94.7
 178    7:20   88.9    12    3.8   136      5.3   950.3    0.00     380    94.6
 178    7:30   91.8    11    2.1   143      3.9   950.3    0.00     406    94.6
 178    7:40   93.4    11    2.2   102      4.2   950.4    0.00     429    94.6
 178    7:50   94.3    11    2.6    66      5.6   950.4    0.00     451    94.6
 178    8:00   95.2    10    3.0    79      5.4   950.4    0.00     472    94.6
 178    8:10   96.3    10    3.4   109      6.1   950.3    0.00     491    94.6
 178    8:20   96.4     9    4.7   105      7.5   950.3    0.00     512    94.6
 178    8:30   97.2     9    4.3   105      7.2   950.3    0.00     532    94.5
 178    8:40   97.4     9    3.5   100      5.8   950.2    0.00     551    94.5
 178    8:50   98.9     9    2.7    99      5.0   950.2    0.00     568    94.5
 178    9:00  100.7     8    1.8   130      4.2   950.1    0.00     585    94.6
 178    9:10  101.0     8    4.4   114      7.5   950.0    0.00     601    94.6
 178    9:20  100.9     8    3.8   111      6.6   950.0    0.00     617    94.7
 178    9:30  101.9     8    2.5   142      6.2   950.0    0.00     631    94.8
 178    9:40  102.0     8    2.1   220      4.2   949.9    0.00     644    95.1
 178    9:50  101.9     9    2.1   220      4.4   949.9    0.00     658    95.5
 178   10:00  103.4     8    1.9   209      4.5   949.8    0.00     668    95.9
 178   10:10  104.0     8    2.5   210      5.2   949.8    0.00     678    96.3
 178   10:20  104.2     8    2.9   201      6.6   949.7    0.00     689    96.8
 178   10:30  104.3     8    2.5   242      7.5   949.6    0.00     699    97.3
 178   10:40  104.3     8    3.2   242      6.2   949.6    0.00     707    97.8
 178   10:50  105.6     8    2.7   236      7.1   949.4    0.00     714    98.3
 178   11:00  105.2     8    2.0   275      5.7   949.4    0.00     718    98.9
 178   11:10  106.2     8    2.6   186      5.8   949.5    0.00     720    99.3
 178   11:20  107.4     8    2.3   222      5.8   949.3    0.00     724    99.9
 178   11:30  107.4     8    2.8   213      7.0   949.1    0.00     726    100.3
 178   11:40  106.8     8    4.1   227      8.3   949.1    0.00     728    100.9
 178   11:50  106.8     8    3.4   233      7.1   948.9    0.00     727    101.4
 178   12:00  107.2     8    3.0   211      8.0   948.9    0.00     729    101.8
 178   12:10  108.1     8    2.2   274      6.6   948.8    0.00     726    102.3
 178   12:20  107.6     8    4.1   258      7.2   948.6    0.00     724    102.8
 178   12:30  107.9     7    2.4   217      6.9   948.5    0.00     720    103.2
 178   12:40  109.7     7    2.7   156      7.3   948.4    0.00     716    103.6
 178   12:50  108.9     8    3.5   261      7.5   948.3    0.00     710    104.1
 178   13:00  108.9     7    2.5   290      6.6   948.1    0.00     700    104.5
 178   13:10  111.0     7    2.0   191      6.3   948.0    0.00     693    104.9
 178   13:20  110.3     7    3.1   178      7.2   947.9    0.00     683    105.4
 178   13:30  110.8     7    2.2   198      6.1   947.8    0.00     671    105.8
 178   13:40  110.9     7    3.9   183      8.8   947.6    0.00     660    106.1
 178   13:50  110.9     7    2.9   170      8.8   947.4    0.00     647    106.5
 178   14:00  111.0     7    3.6   188      8.3   947.4    0.00     633    106.8
 178   14:10  111.2     7    3.9   215      8.8   947.2    0.00     619    107.2
 178   14:20  112.5     6    1.6   188      6.2   947.1    0.00     601    107.5
 178   14:30  111.9     6    3.1   246      6.4   946.9    0.00     583    107.8

Return to Mesquite, Nevada graphs page.


Western Regional Climate Center,wrcc@dri.edu